Time;durP1;ratioP1;P1;durP2;ratioP2;P2;SDS_P1;SDS_P2;PMS_P1;PMS_P2;Temp;Humidity;BMP_temperature;BMP_pressure;BME280_temperature;BME280_humidity;BME280_pressure;Samples;Min_cycle;Max_cycle;Signal;HPM_P1;HPM_P2
2022/10/01 00:02:08;;;;;;;0.10;0.10;;;15.40;99.90;;;;;;4999577;28;20054;-81
2022/10/01 00:04:36;;;;;;;0.10;0.10;;;15.30;99.90;;;;;;4999033;28;20053;-81
2022/10/01 00:07:03;;;;;;;0.10;0.10;;;15.20;99.90;;;;;;5002276;28;20024;-83
2022/10/01 00:09:31;;;;;;;2.63;1.95;;;15.10;99.90;;;;;;5003324;28;20184;-82
2022/10/01 00:11:58;;;;;;;0.10;0.10;;;15.10;99.90;;;;;;5003580;28;20077;-87
2022/10/01 00:14:25;;;;;;;0.10;0.10;;;15.00;99.90;;;;;;5003089;28;20047;-83
2022/10/01 00:16:52;;;;;;;0.10;0.10;;;15.20;99.90;;;;;;5003271;28;20100;-83
2022/10/01 00:19:18;;;;;;;0.10;0.10;;;15.00;99.90;;;;;;5002551;28;20034;-82
2022/10/01 00:21:43;;;;;;;0.10;0.10;;;14.70;99.90;;;;;;5002769;28;20022;-83
2022/10/01 00:24:11;;;;;;;0.17;0.17;;;15.10;99.90;;;;;;5001336;28;20041;-88
2022/10/01 00:26:38;;;;;;;0.10;0.10;;;15.10;99.90;;;;;;5002522;28;20105;-83
2022/10/01 00:29:06;;;;;;;0.63;0.63;;;15.00;99.90;;;;;;5002803;28;20029;-85
2022/10/01 00:31:33;;;;;;;0.10;0.10;;;14.90;99.90;;;;;;5003023;28;20091;-84
2022/10/01 00:34:01;;;;;;;0.10;0.10;;;14.90;99.90;;;;;;5003313;28;20032;-87
2022/10/01 00:36:27;;;;;;;0.10;0.10;;;15.00;99.90;;;;;;5003437;28;20037;-91
2022/10/01 00:38:59;;;;;;;0.10;0.10;;;15.10;99.90;;;;;;5001647;28;20439;-85
2022/10/01 00:41:30;;;;;;;0.20;0.20;;;15.00;99.90;;;;;;5002814;28;20521;-86
2022/10/01 00:44:33;;;;;;;0.17;0.17;;;15.00;99.90;;;;;;5001393;28;20491;-86
2022/10/01 00:47:33;;;;;;;0.10;0.10;;;15.30;99.90;;;;;;4980462;28;20120;-84
2022/10/01 00:50:32;;;;;;;0.10;0.10;;;16.20;99.90;;;;;;4963607;28;20113;-87
2022/10/01 00:53:01;;;;;;;4.40;4.10;;;15.70;99.90;;;;;;4979918;28;20054;-89
2022/10/01 00:55:39;;;;;;;0.65;0.65;;;15.70;99.90;;;;;;4980144;28;20038;-86
2022/10/01 00:58:07;;;;;;;1.75;1.65;;;15.70;99.90;;;;;;4979842;28;20030;-79
2022/10/01 01:00:35;;;;;;;11.60;10.80;;;15.70;99.90;;;;;;4979888;28;20038;-84
2022/10/01 01:03:02;;;;;;;2.58;2.47;;;15.60;99.90;;;;;;4979803;28;20491;-81
2022/10/01 01:05:28;;;;;;;0.10;0.10;;;16.20;99.90;;;;;;4979904;28;20049;-87
2022/10/01 01:07:54;;;;;;;0.20;0.20;;;15.40;99.90;;;;;;4979894;28;20022;-84
2022/10/01 01:10:39;;;;;;;0.10;0.10;;;15.40;99.90;;;;;;4979334;28;20486;-89
2022/10/01 01:13:13;;;;;;;0.10;0.10;;;15.40;99.90;;;;;;4980060;28;20027;-80
2022/10/01 01:15:59;;;;;;;0.10;0.10;;;15.30;99.90;;;;;;4979495;28;20026;-92
2022/10/01 01:18:30;;;;;;;0.10;0.10;;;15.20;99.90;;;;;;4979581;28;20320;-87
2022/10/01 01:21:26;;;;;;;0.10;0.10;;;15.50;99.90;;;;;;4979166;28;20026;-83
2022/10/01 01:24:20;;;;;;;0.90;0.90;;;15.30;99.90;;;;;;4984140;28;20030;-83
2022/10/01 01:27:09;;;;;;;0.10;0.10;;;15.30;99.90;;;;;;5001996;28;20377;-84
2022/10/01 01:29:51;;;;;;;0.10;0.10;;;15.20;99.90;;;;;;5002228;28;20087;-82
2022/10/01 01:32:26;;;;;;;0.10;0.10;;;15.30;99.90;;;;;;5001742;28;20048;-81
2022/10/01 01:34:58;;;;;;;0.10;0.10;;;15.30;99.90;;;;;;5001974;28;20050;-83
2022/10/01 01:37:26;;;;;;;0.10;0.10;;;15.30;99.90;;;;;;5000349;28;20018;-86
2022/10/01 01:39:56;;;;;;;0.10;0.10;;;15.30;99.90;;;;;;5000378;28;20433;-91
2022/10/01 01:42:42;;;;;;;0.10;0.10;;;15.30;99.90;;;;;;5000185;28;20333;-83
2022/10/01 01:45:12;;;;;;;0.10;0.10;;;16.10;99.90;;;;;;4999496;28;20540;-84
2022/10/01 01:47:41;;;;;;;0.10;0.10;;;15.30;99.90;;;;;;4999997;28;20073;-88
2022/10/01 01:50:09;;;;;;;0.10;0.10;;;15.30;99.90;;;;;;5001412;28;20024;-86
2022/10/01 01:52:35;;;;;;;0.10;0.10;;;15.30;99.90;;;;;;5000970;28;20520;-84
2022/10/01 01:55:06;;;;;;;0.10;0.10;;;15.40;99.90;;;;;;4999745;28;20508;-82
2022/10/01 01:57:32;;;;;;;0.10;0.10;;;15.40;99.90;;;;;;5001250;28;20294;-88
2022/10/01 01:59:58;;;;;;;0.10;0.10;;;15.40;99.90;;;;;;5001775;28;20413;-84
2022/10/01 02:02:28;;;;;;;0.10;0.10;;;15.40;99.90;;;;;;5001600;28;20126;-85
2022/10/01 02:05:03;;;;;;;0.10;0.10;;;15.50;99.90;;;;;;5001541;28;20036;-90
2022/10/01 02:08:01;;;;;;;0.10;0.10;;;15.50;99.90;;;;;;5001102;28;20442;-83
2022/10/01 02:11:00;;;;;;;0.10;0.10;;;15.50;99.90;;;;;;4977758;28;20046;-86
2022/10/01 02:13:37;;;;;;;0.10;0.10;;;15.70;99.90;;;;;;4962852;28;20030;-85
2022/10/01 02:16:29;;;;;;;1.52;1.45;;;15.70;99.90;;;;;;4962562;28;20413;-89
2022/10/01 02:19:17;;;;;;;0.10;0.10;;;15.60;99.90;;;;;;4978376;28;20023;-86
2022/10/01 02:22:20;;;;;;;0.10;0.10;;;15.60;99.90;;;;;;4978409;28;20038;-84
2022/10/01 02:24:52;;;;;;;0.10;0.10;;;15.60;99.90;;;;;;4987500;28;20327;-79
2022/10/01 02:27:35;;;;;;;0.10;0.10;;;17.40;99.90;;;;;;4990182;28;20062;-86
2022/10/01 02:30:06;;;;;;;0.10;0.10;;;15.60;99.90;;;;;;4991845;28;20030;-91
2022/10/01 02:32:36;;;;;;;0.10;0.10;;;15.60;99.90;;;;;;4975618;28;20049;-84
2022/10/01 02:35:05;;;;;;;0.10;0.10;;;15.70;99.90;;;;;;4974432;28;20094;-87
2022/10/01 02:37:32;;;;;;;0.10;0.10;;;15.60;99.90;;;;;;4987639;28;20022;-82
2022/10/01 02:40:00;;;;;;;0.10;0.10;;;15.70;99.90;;;;;;4988462;28;20065;-83
2022/10/01 02:42:28;;;;;;;0.10;0.10;;;15.70;99.90;;;;;;4987811;28;20113;-86
2022/10/01 02:44:56;;;;;;;0.10;0.10;;;15.80;99.90;;;;;;4988123;28;20058;-85
2022/10/01 02:47:33;;;;;;;15.23;6.25;;;15.80;99.90;;;;;;4978728;28;20180;-87
2022/10/01 02:50:01;;;;;;;0.10;0.10;;;15.80;99.90;;;;;;4968924;28;20342;-85
2022/10/01 02:52:47;;;;;;;0.10;0.10;;;15.80;99.90;;;;;;4967854;28;20259;-84
2022/10/01 02:55:24;;;;;;;11.65;2.35;;;15.80;99.90;;;;;;4972589;28;20151;-81
2022/10/01 02:57:50;;;;;;;1.40;0.57;;;15.80;99.90;;;;;;4972055;28;20046;-85
2022/10/01 03:00:21;;;;;;;0.20;0.20;;;15.80;99.90;;;;;;4971560;28;20102;-87
2022/10/01 03:02:48;;;;;;;0.30;0.30;;;15.80;99.90;;;;;;4970834;28;20028;-87
2022/10/01 03:05:15;;;;;;;0.10;0.10;;;15.90;99.90;;;;;;4967501;28;20223;-87
2022/10/01 03:07:42;;;;;;;0.25;0.25;;;15.20;99.90;;;;;;4965083;28;20011;-87
2022/10/01 03:10:10;;;;;;;0.10;0.10;;;15.80;99.90;;;;;;4972847;28;20104;-87
2022/10/01 03:12:42;;;;;;;0.10;0.10;;;15.80;99.90;;;;;;5000127;28;20125;-80
2022/10/01 03:15:09;;;;;;;0.68;0.68;;;15.70;99.90;;;;;;5000407;28;20076;-85
2022/10/01 03:17:37;;;;;;;0.10;0.10;;;15.60;99.90;;;;;;4998314;28;20485;-84
2022/10/01 03:20:04;;;;;;;0.10;0.10;;;15.70;99.90;;;;;;4999940;28;20037;-82
2022/10/01 03:22:32;;;;;;;0.10;0.10;;;15.70;99.90;;;;;;4998522;28;20139;-83
2022/10/01 03:24:58;;;;;;;0.10;0.10;;;15.70;99.90;;;;;;5000103;28;20053;-87
2022/10/01 03:27:24;;;;;;;0.10;0.10;;;15.90;99.90;;;;;;4999514;28;20033;-89
2022/10/01 03:29:50;;;;;;;0.10;0.10;;;15.90;99.90;;;;;;4999831;28;20038;-77
2022/10/01 03:32:16;;;;;;;0.10;0.10;;;16.00;99.90;;;;;;4998616;28;20029;-84
2022/10/01 03:34:42;;;;;;;0.10;0.10;;;16.00;99.90;;;;;;4999811;28;20014;-85
2022/10/01 03:37:08;;;;;;;0.10;0.10;;;16.00;99.90;;;;;;4998765;28;20080;-80
2022/10/01 03:39:34;;;;;;;0.10;0.10;;;16.00;99.90;;;;;;4999006;28;20061;-82
2022/10/01 03:42:00;;;;;;;0.10;0.10;;;16.00;99.90;;;;;;4998479;28;20121;-86
2022/10/01 03:44:29;;;;;;;0.10;0.10;;;16.10;99.90;;;;;;4999131;28;20507;-81
2022/10/01 03:46:55;;;;;;;0.10;0.10;;;16.00;99.90;;;;;;4998384;28;20018;-81
2022/10/01 03:49:21;;;;;;;0.10;0.10;;;18.50;99.90;;;;;;4999517;28;20080;-85
2022/10/01 03:51:46;;;;;;;0.10;0.10;;;16.20;99.90;;;;;;4999639;28;20036;-87
2022/10/01 03:54:12;;;;;;;0.30;0.30;;;16.20;99.90;;;;;;4999173;28;20405;-81
2022/10/01 03:56:41;;;;;;;0.20;0.20;;;16.20;99.90;;;;;;4999562;28;20289;-84
2022/10/01 03:59:11;;;;;;;0.10;0.10;;;16.30;99.90;;;;;;4998805;28;20473;-83
2022/10/01 04:01:38;;;;;;;0.40;0.40;;;16.40;99.90;;;;;;4999616;28;20029;-85
2022/10/01 04:04:05;;;;;;;5.18;2.72;;;16.40;99.90;;;;;;4999165;28;20105;-83
2022/10/01 04:06:30;;;;;;;2.25;2.10;;;16.40;99.90;;;;;;4998128;28;20053;-83
2022/10/01 04:08:56;;;;;;;0.10;0.10;;;16.60;99.90;;;;;;4999381;28;20056;-82
2022/10/01 04:11:23;;;;;;;5.85;5.28;;;16.70;99.90;;;;;;4997872;28;20046;-85
2022/10/01 04:13:49;;;;;;;4.00;3.85;;;16.70;99.90;;;;;;4998641;28;20021;-81
2022/10/01 04:16:15;;;;;;;0.10;0.10;;;16.80;99.90;;;;;;4997085;28;20414;-82
2022/10/01 04:18:41;;;;;;;0.10;0.10;;;16.80;99.90;;;;;;4997032;28;20026;-79
2022/10/01 04:21:07;;;;;;;0.10;0.10;;;16.80;99.90;;;;;;4998482;28;20046;-78
2022/10/01 04:23:33;;;;;;;0.10;0.10;;;16.80;99.90;;;;;;4996821;28;20033;-85
2022/10/01 04:26:01;;;;;;;1.02;0.95;;;16.90;99.90;;;;;;4997229;28;20079;-89
2022/10/01 04:28:28;;;;;;;0.10;0.10;;;17.10;99.90;;;;;;4998409;28;20029;-82
2022/10/01 04:31:23;;;;;;;0.82;0.82;;;17.30;99.90;;;;;;4998738;28;20034;-83
2022/10/01 04:33:40;;;;;;;0.10;0.10;;;17.30;99.90;;;;;;4998235;28;20477;-90
2022/10/01 04:36:06;;;;;;;0.10;0.10;;;17.90;99.90;;;;;;4997047;28;20089;-79
2022/10/01 04:38:33;;;;;;;0.10;0.10;;;17.30;99.90;;;;;;4998210;28;20026;-84
2022/10/01 04:41:01;;;;;;;0.10;0.10;;;17.30;99.90;;;;;;4996917;28;20561;-80
2022/10/01 04:43:27;;;;;;;0.10;0.10;;;14.60;99.90;;;;;;4998714;28;20087;-84
2022/10/01 04:45:53;;;;;;;0.10;0.10;;;17.20;99.90;;;;;;4998635;28;20164;-78
2022/10/01 04:48:19;;;;;;;0.10;0.10;;;17.20;99.90;;;;;;4998728;28;20294;-78
2022/10/01 04:50:44;;;;;;;0.10;0.10;;;17.30;99.90;;;;;;4999884;28;20038;-84
2022/10/01 04:53:10;;;;;;;0.10;0.10;;;17.30;99.90;;;;;;5002543;28;20095;-82
2022/10/01 04:55:36;;;;;;;0.10;0.10;;;17.30;99.90;;;;;;5001886;28;20033;-79
2022/10/01 04:58:02;;;;;;;0.30;0.30;;;17.30;99.90;;;;;;5002068;28;20176;-81
2022/10/01 05:00:28;;;;;;;0.10;0.10;;;17.30;99.90;;;;;;5002056;28;20566;-84
2022/10/01 05:02:54;;;;;;;0.10;0.10;;;17.30;99.90;;;;;;5002050;28;20022;-82
2022/10/01 05:05:22;;;;;;;0.10;0.10;;;17.20;99.90;;;;;;5002390;28;20022;-81
2022/10/01 05:07:48;;;;;;;0.10;0.10;;;17.30;99.90;;;;;;5001888;28;20077;-81
2022/10/01 05:10:18;;;;;;;0.73;0.73;;;17.30;99.90;;;;;;5001816;28;20042;-84
2022/10/01 05:12:47;;;;;;;0.45;0.45;;;17.30;99.90;;;;;;5001774;28;20647;-77
2022/10/01 05:15:14;;;;;;;0.35;0.35;;;17.40;99.90;;;;;;5000766;28;20495;-81
2022/10/01 05:17:40;;;;;;;0.10;0.10;;;17.30;99.90;;;;;;5001954;28;20033;-80
2022/10/01 05:20:08;;;;;;;0.10;0.10;;;17.40;99.90;;;;;;5000270;28;20038;-86
2022/10/01 05:22:34;;;;;;;0.20;0.20;;;17.50;99.90;;;;;;5001574;28;20490;-82
2022/10/01 05:25:00;;;;;;;0.10;0.10;;;17.50;99.90;;;;;;5001470;28;20029;-87
2022/10/01 05:27:30;;;;;;;0.10;0.10;;;17.90;99.90;;;;;;5001717;28;20026;-87
2022/10/01 05:29:56;;;;;;;0.10;0.10;;;17.60;99.90;;;;;;5000053;28;20022;-90
2022/10/01 05:32:22;;;;;;;0.10;0.10;;;17.90;99.90;;;;;;5000599;28;20344;-86
2022/10/01 05:34:48;;;;;;;0.10;0.10;;;18.30;99.90;;;;;;5000632;28;20334;-79
2022/10/01 05:37:14;;;;;;;0.10;0.10;;;18.50;99.90;;;;;;5000382;28;20444;-85
2022/10/01 05:39:40;;;;;;;0.10;0.10;;;18.70;99.90;;;;;;5001684;28;20041;-85
2022/10/01 05:42:06;;;;;;;0.63;0.63;;;18.80;99.90;;;;;;5001406;28;20018;-80
2022/10/01 05:44:36;;;;;;;0.10;0.10;;;18.80;99.90;;;;;;5001471;28;20524;-86
2022/10/01 05:47:06;;;;;;;0.10;0.10;;;19.00;99.90;;;;;;4999884;28;20032;-79
2022/10/01 05:49:32;;;;;;;0.10;0.10;;;19.10;99.90;;;;;;5001013;28;20306;-81
2022/10/01 05:51:59;;;;;;;0.10;0.10;;;19.20;99.90;;;;;;5000724;28;20307;-80
2022/10/01 05:54:29;;;;;;;0.10;0.10;;;19.20;99.90;;;;;;4999511;28;20030;-81
2022/10/01 05:56:56;;;;;;;0.10;0.10;;;19.30;99.90;;;;;;5000977;28;20219;-86
2022/10/01 05:59:22;;;;;;;0.10;0.10;;;19.30;99.90;;;;;;5000850;28;20527;-83
2022/10/01 06:01:48;;;;;;;0.10;0.10;;;19.30;99.90;;;;;;5000144;28;20442;-79
2022/10/01 06:04:17;;;;;;;0.10;0.10;;;19.40;99.90;;;;;;5000804;28;20547;-86
2022/10/01 06:06:43;;;;;;;0.10;0.10;;;19.50;99.90;;;;;;5000856;28;20021;-83
2022/10/01 06:09:09;;;;;;;0.10;0.10;;;19.70;99.90;;;;;;4998898;28;20285;-81
2022/10/01 06:11:36;;;;;;;0.10;0.10;;;19.70;99.90;;;;;;5000446;28;20053;-80
2022/10/01 06:14:02;;;;;;;1.65;1.55;;;19.80;99.90;;;;;;5000916;28;20125;-81
2022/10/01 06:16:28;;;;;;;0.10;0.10;;;19.90;99.90;;;;;;5000296;28;20101;-81
2022/10/01 06:18:56;;;;;;;0.10;0.10;;;19.90;99.90;;;;;;4999455;28;20117;-79
2022/10/01 06:21:26;;;;;;;0.10;0.10;;;19.90;99.90;;;;;;5000452;28;20022;-85
2022/10/01 06:23:52;;;;;;;0.10;0.10;;;19.90;99.90;;;;;;4999541;28;20065;-85
2022/10/01 06:26:24;;;;;;;0.10;0.10;;;20.00;99.90;;;;;;5003705;28;20101;-79
2022/10/01 06:28:51;;;;;;;0.10;0.10;;;20.00;99.90;;;;;;5009827;28;20242;-80
2022/10/01 06:31:20;;;;;;;0.10;0.10;;;20.00;99.90;;;;;;5007023;28;20073;-85
2022/10/01 06:33:46;;;;;;;3.90;0.80;;;20.10;99.90;;;;;;5008422;28;20637;-85
2022/10/01 06:36:12;;;;;;;0.10;0.10;;;20.20;99.90;;;;;;5009380;28;20299;-78
2022/10/01 06:38:38;;;;;;;0.10;0.10;;;20.20;99.90;;;;;;5003823;28;20033;-86
2022/10/01 06:41:07;;;;;;;0.85;0.85;;;20.20;99.90;;;;;;5003573;28;20048;-79
2022/10/01 06:43:32;;;;;;;0.20;0.20;;;19.30;99.90;;;;;;5000423;28;20520;-82
2022/10/01 06:46:03;;;;;;;0.65;0.47;;;20.40;99.90;;;;;;4999849;28;20318;-80
2022/10/01 06:48:30;;;;;;;0.10;0.10;;;20.40;99.90;;;;;;5000985;28;20030;-78
2022/10/01 06:50:56;;;;;;;3.53;3.20;;;21.20;99.90;;;;;;4999046;28;20018;-76
2022/10/01 06:53:42;;;;;;;0.10;0.10;;;20.50;99.90;;;;;;4999510;28;20484;-78
2022/10/01 06:56:11;;;;;;;0.10;0.10;;;20.70;99.90;;;;;;5001697;28;20041;-85
2022/10/01 06:58:47;;;;;;;0.10;0.10;;;20.80;99.90;;;;;;5003067;28;20036;-79
2022/10/01 07:01:18;;;;;;;0.08;0.08;;;20.20;99.90;;;;;;4998024;28;20045;-85
2022/10/01 07:03:45;;;;;;;0.10;0.10;;;19.90;99.90;;;;;;5000303;28;20022;-77
2022/10/01 07:06:11;;;;;;;0.20;0.20;;;21.60;99.90;;;;;;5000964;28;20052;-78
2022/10/01 07:08:37;;;;;;;0.10;0.10;;;20.90;99.90;;;;;;5003163;28;20503;-85
2022/10/01 07:11:03;;;;;;;0.10;0.10;;;22.60;99.90;;;;;;5001958;28;20042;-80
2022/10/01 07:14:11;;;;;;;0.10;0.10;;;20.90;99.90;;;;;;4998946;28;20010;-79
2022/10/01 07:16:38;;;;;;;0.10;0.10;;;21.80;99.90;;;;;;4994300;28;20345;-81
2022/10/01 07:19:03;;;;;;;0.10;0.10;;;20.80;99.90;;;;;;5000152;28;20417;-87
2022/10/01 07:21:32;;;;;;;0.10;0.10;;;20.90;99.90;;;;;;4998429;28;20026;-78
2022/10/01 07:23:58;;;;;;;0.10;0.10;;;21.90;99.90;;;;;;4997145;28;20034;-80
2022/10/01 07:26:24;;;;;;;0.10;0.10;;;20.90;99.90;;;;;;4998342;28;20481;-83
2022/10/01 07:28:50;;;;;;;0.13;0.13;;;21.10;99.90;;;;;;4997324;28;20050;-87
2022/10/01 07:31:16;;;;;;;0.10;0.10;;;21.10;99.90;;;;;;4999038;28;20156;-81
2022/10/01 07:33:44;;;;;;;0.10;0.10;;;20.90;99.90;;;;;;4997958;28;20373;-84
2022/10/01 07:36:12;;;;;;;0.10;0.10;;;22.20;99.90;;;;;;4998951;28;20278;-85
2022/10/01 07:38:38;;;;;;;0.10;0.10;;;21.00;99.90;;;;;;4999350;28;20091;-78
2022/10/01 07:41:04;;;;;;;0.10;0.10;;;21.10;99.90;;;;;;4998745;28;20584;-83
2022/10/01 07:43:38;;;;;;;0.10;0.10;;;21.20;99.90;;;;;;4997442;28;20079;-87
2022/10/01 07:46:05;;;;;;;0.10;0.10;;;21.30;99.90;;;;;;4998740;28;20299;-78
2022/10/01 07:48:32;;;;;;;0.35;0.35;;;21.40;99.90;;;;;;4998837;28;20018;-81
2022/10/01 07:50:58;;;;;;;0.10;0.10;;;21.60;99.90;;;;;;4998711;28;20105;-77
2022/10/01 07:53:24;;;;;;;0.00;0.00;;;21.60;99.90;;;;;;4996324;28;20072;-78
2022/10/01 07:55:50;;;;;;;0.10;0.10;;;21.60;99.90;;;;;;4999084;28;20018;-78
2022/10/01 07:58:17;;;;;;;0.10;0.10;;;21.60;99.90;;;;;;4996326;28;20080;-83
2022/10/01 08:00:43;;;;;;;0.10;0.10;;;21.60;99.90;;;;;;4998092;28;20234;-85
2022/10/01 08:03:11;;;;;;;0.60;0.55;;;21.70;99.90;;;;;;4998826;28;20100;-78
2022/10/01 08:05:40;;;;;;;0.00;0.00;;;21.90;99.90;;;;;;4996633;28;20046;-80
2022/10/01 08:08:07;;;;;;;4.45;4.03;;;22.10;99.90;;;;;;4999245;28;20022;-88
2022/10/01 08:10:35;;;;;;;0.35;0.35;;;22.30;99.90;;;;;;4997658;28;20076;-84
2022/10/01 08:13:13;;;;;;;0.00;0.00;;;22.40;99.90;;;;;;4998501;28;20100;-81
2022/10/01 08:15:43;;;;;;;0.10;0.10;;;22.00;99.90;;;;;;4998779;28;20696;-79
2022/10/01 08:18:10;;;;;;;0.10;0.10;;;22.10;99.90;;;;;;4997588;28;20018;-83
2022/10/01 08:20:38;;;;;;;0.10;0.10;;;22.10;99.90;;;;;;4997245;28;20170;-83
2022/10/01 08:23:06;;;;;;;0.10;0.10;;;21.20;99.90;;;;;;4998851;28;20029;-78
2022/10/01 08:25:33;;;;;;;0.10;0.10;;;22.30;99.90;;;;;;5000254;28;20026;-83
2022/10/01 08:28:01;;;;;;;0.10;0.10;;;22.50;99.90;;;;;;5001025;28;20248;-79
2022/10/01 08:30:28;;;;;;;0.03;0.03;;;22.70;99.90;;;;;;5001851;28;20207;-82
2022/10/01 08:32:58;;;;;;;0.08;0.08;;;22.80;99.90;;;;;;5004098;28;20061;-90
2022/10/01 08:35:25;;;;;;;0.00;0.00;;;22.90;99.90;;;;;;5010545;28;20318;-81
2022/10/01 08:37:53;;;;;;;0.57;0.25;;;23.20;99.70;;;;;;5002262;28;20030;-85
2022/10/01 08:40:20;;;;;;;0.10;0.10;;;23.50;99.20;;;;;;5008307;28;20034;-78
2022/10/01 08:42:52;;;;;;;0.10;0.10;;;23.40;98.90;;;;;;5001620;28;20041;-82
2022/10/01 08:45:33;;;;;;;1.25;0.75;;;23.20;98.80;;;;;;5004005;28;20368;-91
2022/10/01 08:48:02;;;;;;;0.10;0.10;;;23.30;99.10;;;;;;5001335;28;20069;-82
2022/10/01 08:50:40;;;;;;;0.10;0.10;;;23.00;99.40;;;;;;5002267;28;20281;-82
2022/10/01 08:53:15;;;;;;;0.10;0.10;;;23.20;99.50;;;;;;5001998;28;20414;-79
2022/10/01 08:55:41;;;;;;;0.00;0.00;;;23.30;98.80;;;;;;5002743;28;20195;-89
2022/10/01 08:58:14;;;;;;;0.10;0.10;;;23.60;98.40;;;;;;5002304;28;20025;-81
2022/10/01 09:00:44;;;;;;;0.10;0.10;;;23.70;97.70;;;;;;5001688;28;20026;-77
2022/10/01 09:03:13;;;;;;;0.10;0.10;;;25.00;98.20;;;;;;5001744;28;20022;-77
2022/10/01 09:06:05;;;;;;;0.00;0.00;;;23.70;97.70;;;;;;5001625;28;20285;-80
2022/10/01 09:09:24;;;;;;;0.10;0.10;;;23.70;97.20;;;;;;5007868;28;20108;-80
2022/10/01 09:12:11;;;;;;;0.00;0.00;;;23.60;97.60;;;;;;4980933;28;20138;-83
2022/10/01 09:14:48;;;;;;;0.10;0.10;;;23.90;97.10;;;;;;4979566;28;20307;-79
2022/10/01 09:17:36;;;;;;;0.00;0.00;;;23.80;96.80;;;;;;4978835;28;20712;-81
2022/10/01 09:20:45;;;;;;;0.10;0.10;;;23.70;96.80;;;;;;4979775;28;20042;-86
2022/10/01 09:23:42;;;;;;;0.00;0.00;;;23.70;96.70;;;;;;4921103;29;20086;-81
2022/10/01 09:26:10;;;;;;;0.10;0.10;;;23.70;96.60;;;;;;4920388;29;20032;-88
2022/10/01 09:28:38;;;;;;;0.10;0.10;;;23.80;96.80;;;;;;4921290;29;20035;-84
2022/10/01 09:31:23;;;;;;;0.10;0.10;;;24.00;96.20;;;;;;4921132;29;20140;-84
2022/10/01 09:34:03;;;;;;;0.10;0.10;;;24.30;96.30;;;;;;4921262;28;20031;-77
2022/10/01 09:37:04;;;;;;;1.10;1.02;;;24.20;95.90;;;;;;4920664;29;20079;-84
2022/10/01 09:39:40;;;;;;;0.00;0.00;;;24.30;95.20;;;;;;4920858;29;20042;-83
2022/10/01 09:42:06;;;;;;;0.35;0.35;;;24.50;95.30;;;;;;4921659;29;20036;-77
2022/10/01 09:44:33;;;;;;;0.00;0.00;;;24.70;95.00;;;;;;4922370;28;20241;-79
2022/10/01 09:46:59;;;;;;;0.65;0.65;;;24.90;95.30;;;;;;4920558;29;20476;-77
2022/10/01 09:49:26;;;;;;;0.00;0.00;;;25.20;94.20;;;;;;4920323;29;20040;-79
2022/10/01 09:51:56;;;;;;;0.25;0.25;;;25.40;93.00;;;;;;4922137;29;20601;-80
2022/10/01 09:54:51;;;;;;;0.13;0.13;;;25.60;93.10;;;;;;4906635;29;20123;-88
2022/10/01 09:57:21;;;;;;;0.00;0.00;;;25.20;92.80;;;;;;4901818;29;20036;-84
2022/10/01 09:59:54;;;;;;;0.00;0.00;;;25.00;93.00;;;;;;4944955;28;20043;-84
2022/10/01 10:02:30;;;;;;;0.20;0.20;;;25.30;92.80;;;;;;4944438;28;20067;-83
2022/10/01 10:05:22;;;;;;;0.00;0.00;;;25.20;93.60;;;;;;4944873;28;20023;-81
2022/10/01 10:07:56;;;;;;;0.00;0.00;;;25.60;91.60;;;;;;4889953;29;20107;-78
2022/10/01 10:10:24;;;;;;;0.57;0.57;;;26.60;92.20;;;;;;4887461;29;20049;-79
2022/10/01 10:13:00;;;;;;;0.00;0.00;;;25.30;91.90;;;;;;4888507;29;20036;-80
2022/10/01 10:15:30;;;;;;;0.10;0.10;;;25.00;92.00;;;;;;4885179;29;20062;-78
2022/10/01 10:18:09;;;;;;;0.03;0.03;;;25.10;91.80;;;;;;4883969;29;20025;-77
2022/10/01 10:20:40;;;;;;;0.00;0.00;;;24.90;91.60;;;;;;4883186;29;20040;-84
2022/10/01 10:23:19;;;;;;;0.00;0.00;;;24.70;92.00;;;;;;4882953;29;20039;-79
2022/10/01 10:26:02;;;;;;;0.00;0.00;;;24.90;91.50;;;;;;4883791;29;20693;-81
2022/10/01 10:28:43;;;;;;;0.10;0.10;;;24.80;91.50;;;;;;4885161;29;20088;-78
2022/10/01 10:31:29;;;;;;;0.00;0.00;;;24.50;91.60;;;;;;4886948;29;20191;-79
2022/10/01 10:33:57;;;;;;;0.00;0.00;;;24.80;92.30;;;;;;4913756;28;20356;-86
2022/10/01 10:36:29;;;;;;;0.10;0.10;;;25.00;92.10;;;;;;4945639;28;20029;-89
2022/10/01 10:38:56;;;;;;;0.00;0.00;;;24.90;92.00;;;;;;4960756;28;20039;-85
2022/10/01 10:41:25;;;;;;;0.00;0.00;;;24.90;92.00;;;;;;4944123;28;20581;-82
2022/10/01 10:44:05;;;;;;;0.00;0.00;;;25.00;90.70;;;;;;4964443;28;20545;-78
2022/10/01 10:46:34;;;;;;;0.00;0.00;;;25.10;90.60;;;;;;5000234;28;20448;-83
2022/10/01 10:49:28;;;;;;;0.00;0.00;;;24.80;90.60;;;;;;5000077;28;20634;-78
2022/10/01 10:52:00;;;;;;;0.10;0.10;;;24.70;91.40;;;;;;4998511;28;20022;-81
2022/10/01 10:54:45;;;;;;;0.00;0.00;;;23.90;90.60;;;;;;4999821;28;20123;-86
2022/10/01 10:57:33;;;;;;;0.08;0.08;;;25.20;90.80;;;;;;5000529;28;20041;-84
2022/10/01 11:00:05;;;;;;;0.00;0.00;;;28.30;91.60;;;;;;4999792;28;20109;-83
2022/10/01 11:02:32;;;;;;;0.17;0.17;;;25.50;90.60;;;;;;5000406;28;20022;-82
2022/10/01 11:05:22;;;;;;;0.00;0.00;;;25.50;90.30;;;;;;5001899;28;20041;-85
2022/10/01 11:07:52;;;;;;;0.10;0.10;;;25.30;91.20;;;;;;4977970;28;20189;-84
2022/10/01 11:10:23;;;;;;;0.00;0.00;;;25.30;90.60;;;;;;4977195;28;20046;-80
2022/10/01 11:13:25;;;;;;;0.00;0.00;;;25.00;90.10;;;;;;4978564;28;20038;-85
2022/10/01 11:16:17;;;;;;;0.08;0.08;;;24.70;90.10;;;;;;4977943;28;20045;-85
2022/10/01 11:19:04;;;;;;;0.47;0.47;;;23.10;87.60;;;;;;4977680;28;20525;-82
2022/10/01 11:21:56;;;;;;;0.10;0.10;;;25.80;88.80;;;;;;4977131;28;20398;-81
2022/10/01 11:24:31;;;;;;;0.00;0.00;;;26.20;87.70;;;;;;4960461;28;20073;-81
2022/10/01 11:27:05;;;;;;;0.00;0.00;;;26.50;84.00;;;;;;4977294;28;20069;-80
2022/10/01 11:30:00;;;;;;;0.00;0.00;;;26.50;82.50;;;;;;4977560;28;20683;-79
2022/10/01 11:32:46;;;;;;;0.00;0.00;;;26.40;82.60;;;;;;4977961;28;20675;-82
2022/10/01 11:35:20;;;;;;;0.10;0.10;;;26.70;82.00;;;;;;4960981;28;20053;-79
2022/10/01 11:38:03;;;;;;;0.08;0.08;;;26.90;82.10;;;;;;4963822;28;20540;-84
2022/10/01 11:40:39;;;;;;;0.10;0.10;;;26.50;78.70;;;;;;4978192;28;20210;-86
2022/10/01 11:43:17;;;;;;;0.00;0.00;;;26.50;80.20;;;;;;4979775;28;20710;-79
2022/10/01 11:46:20;;;;;;;0.00;0.00;;;26.90;81.20;;;;;;4993050;28;20079;-79
2022/10/01 11:49:01;;;;;;;0.00;0.00;;;26.90;80.10;;;;;;4976319;28;20485;-79
2022/10/01 11:51:38;;;;;;;0.00;0.00;;;26.80;82.40;;;;;;4976598;28;20131;-83
2022/10/01 11:54:10;;;;;;;0.00;0.00;;;26.50;80.80;;;;;;4960812;28;20125;-83
2022/10/01 11:59:43;;;;;;;0.20;0.20;;;26.50;81.30;;;;;;4979105;28;20058;-85
2022/10/01 12:02:25;;;;;;;0.00;0.00;;;27.20;79.10;;;;;;4979806;28;20030;-82
2022/10/01 12:04:57;;;;;;;0.00;0.00;;;26.70;79.10;;;;;;4980573;28;20038;-88
2022/10/01 12:07:29;;;;;;;0.15;0.15;;;26.70;78.60;;;;;;4964135;28;20018;-84
2022/10/01 12:10:19;;;;;;;0.00;0.00;;;26.80;79.20;;;;;;4985348;28;20050;-83
2022/10/01 12:13:15;;;;;;;0.00;0.00;;;27.30;76.80;;;;;;4983464;28;20136;-83
2022/10/01 12:16:03;;;;;;;0.00;0.00;;;27.50;76.70;;;;;;4980077;28;20050;-84
2022/10/01 12:19:06;;;;;;;0.00;0.00;;;24.60;74.40;;;;;;4984235;28;20529;-81
2022/10/01 12:22:01;;;;;;;0.00;0.00;;;27.70;77.10;;;;;;4984031;28;20050;-80
2022/10/01 12:24:31;;;;;;;0.00;0.00;;;27.80;73.30;;;;;;4992803;28;20101;-82
2022/10/01 12:27:25;;;;;;;0.00;0.00;;;27.80;74.40;;;;;;5002863;28;20105;-81
2022/10/01 12:30:14;;;;;;;0.00;0.00;;;27.90;72.90;;;;;;5003320;28;20030;-83
2022/10/01 12:32:49;;;;;;;0.00;0.00;;;30.20;77.20;;;;;;5002719;28;20018;-81
2022/10/01 12:35:20;;;;;;;0.00;0.00;;;26.50;74.40;;;;;;5003106;28;20104;-83
2022/10/01 12:38:20;;;;;;;0.10;0.10;;;24.90;74.70;;;;;;5001453;28;20393;-82
2022/10/01 12:40:49;;;;;;;0.00;0.00;;;25.90;76.70;;;;;;5002229;28;20591;-80
2022/10/01 12:43:32;;;;;;;0.00;0.00;;;25.60;77.10;;;;;;5001573;28;20655;-82
2022/10/01 12:46:07;;;;;;;0.00;0.00;;;25.20;77.90;;;;;;5000593;28;20033;-81
2022/10/01 12:48:47;;;;;;;0.00;0.00;;;25.10;79.10;;;;;;5000685;28;20413;-80
2022/10/01 12:51:40;;;;;;;0.00;0.00;;;22.60;78.20;;;;;;5000545;28;20022;-84
2022/10/01 12:54:29;;;;;;;0.00;0.00;;;25.00;80.40;;;;;;5002431;28;20053;-88
2022/10/01 12:57:12;;;;;;;0.00;0.00;;;25.20;80.00;;;;;;5001198;28;20037;-88
2022/10/01 12:59:50;;;;;;;0.00;0.00;;;25.00;80.80;;;;;;5002776;28;20029;-82
2022/10/01 13:02:22;;;;;;;0.00;0.00;;;24.90;81.40;;;;;;5003248;28;20053;-79
2022/10/01 13:04:56;;;;;;;0.70;0.65;;;25.00;81.90;;;;;;5000639;28;20444;-87
2022/10/01 13:07:34;;;;;;;0.10;0.10;;;24.70;80.20;;;;;;5002163;28;20042;-86
2022/10/01 13:10:28;;;;;;;0.00;0.00;;;24.70;81.10;;;;;;5002337;28;20512;-81
2022/10/01 13:13:23;;;;;;;3.63;2.45;;;25.50;80.90;;;;;;5001008;28;20092;-87
2022/10/01 13:16:04;;;;;;;0.63;0.63;;;25.20;79.10;;;;;;5002983;28;20022;-85
2022/10/01 13:18:52;;;;;;;0.10;0.10;;;25.30;78.80;;;;;;5002144;28;20419;-80
2022/10/01 13:21:52;;;;;;;0.00;0.00;;;25.30;79.40;;;;;;5002102;28;20084;-85